createdAt,value
2022-08-12T00:03:59.346Z,0.88715
2022-08-12T00:09:00.881Z,0.88715
2022-08-12T00:14:02.617Z,0.88715
2022-08-12T00:19:04.057Z,0.88715
2022-08-12T00:24:05.785Z,0.88715
2022-08-12T00:29:07.678Z,0
2022-08-12T00:34:09.196Z,0.88715
2022-08-12T00:39:12.015Z,0
2022-08-12T00:44:13.682Z,0.88715
2022-08-12T00:49:15.241Z,0.88715
2022-08-12T00:54:16.828Z,0.88715
2022-08-12T00:59:18.974Z,0.88715
2022-08-12T01:04:20.469Z,0.88715
2022-08-12T01:09:21.893Z,0.88715
2022-08-12T01:14:23.578Z,0.88715
2022-08-12T01:19:25.258Z,0
2022-08-12T01:24:30.704Z,0.88715
2022-08-12T01:29:33.562Z,0
2022-08-12T01:34:36.114Z,0.88715
2022-08-12T01:39:38.456Z,0.88715
2022-08-12T01:45:43.122Z,0.88715
2022-08-12T01:50:45.153Z,0.88715
2022-08-12T01:55:47.497Z,0.88715
2022-08-12T02:00:55.429Z,0.88715
2022-08-12T02:05:57.766Z,0
2022-08-12T02:10:59.237Z,0.88715
2022-08-12T02:16:01.029Z,0.88715
2022-08-12T02:21:02.432Z,0.88715
2022-08-12T02:26:03.972Z,0
2022-08-12T02:31:05.642Z,0
2022-08-12T02:36:07.083Z,0.88715
2022-08-12T02:41:08.545Z,0.88715
2022-08-12T02:46:14.055Z,0
2022-08-12T02:51:16.423Z,0.88715
2022-08-12T02:56:23.022Z,0
2022-08-12T03:01:25.077Z,0.88715
2022-08-12T03:06:26.829Z,0
2022-08-12T03:11:28.525Z,0.88715
2022-08-12T03:16:33.356Z,0.88715
2022-08-12T03:21:58.011Z,0
2022-08-12T03:27:11.232Z,0.88715
2022-08-12T03:32:35.743Z,0
2022-08-12T03:37:38.236Z,0
2022-08-12T03:42:39.858Z,0
2022-08-12T03:47:41.541Z,0.88715
2022-08-12T03:52:43.050Z,0.88715
2022-08-12T03:57:46.081Z,0.88715
2022-08-12T04:02:50.607Z,0.88715
2022-08-12T04:07:58.313Z,0.88715
2022-08-12T04:13:00.119Z,0
2022-08-12T04:18:06.697Z,2.3237
2022-08-12T04:23:09.509Z,3.85445
2022-08-12T04:28:13.156Z,2.54805
2022-08-12T04:33:15.941Z,4.4443
2022-08-12T04:38:17.355Z,14.62485
2022-08-12T04:43:55.318Z,26.37265
2022-08-12T04:49:03.283Z,49.9234
2022-08-12T04:54:04.859Z,78.1767
2022-08-12T04:59:06.440Z,109.6018
2022-08-12T05:04:08.335Z,141.7647
2022-08-12T05:09:13.395Z,176.2513
2022-08-12T05:14:15.211Z,218.3175
2022-08-12T05:19:18.634Z,253.96595
2022-08-12T05:24:24.211Z,290.40735
2022-08-12T05:30:08.315Z,320.0621
2022-08-12T05:35:11.246Z,352.53875
2022-08-12T05:40:12.989Z,386.30655
2022-08-12T05:45:14.473Z,408.58515
2022-08-12T05:50:15.929Z,434.9578
2022-08-12T05:55:17.456Z,449.84125
2022-08-12T06:00:19.354Z,476.74825
2022-08-12T06:05:21.038Z,505.9238
2022-08-12T06:10:32.086Z,519.70055
2022-08-12T06:15:34.699Z,559.1483
2022-08-12T06:20:36.178Z,604.71905
2022-08-12T06:25:38.498Z,639.96245
2022-08-12T06:30:40.036Z,675.94365
2022-08-12T06:35:47.976Z,707.093
2022-08-12T06:40:51.202Z,738.1872
2022-08-12T06:45:52.637Z,768.22985
2022-08-12T06:50:54.151Z,784.3303
2022-08-12T06:55:58.035Z,805.92625
2022-08-12T07:01:00.330Z,826.3052
2022-08-12T07:06:02.581Z,860.73665
2022-08-12T07:11:04.113Z,878.23855
2022-08-12T07:16:05.586Z,903.08045
2022-08-12T07:21:07.158Z,928.3464
2022-08-12T07:26:08.626Z,951.04905
2022-08-12T07:31:13.076Z,963.8484
2022-08-12T07:36:19.696Z,994.5547
2022-08-12T07:41:21.262Z,1019.94995
2022-08-12T07:46:22.820Z,1047.0604
2022-08-12T07:51:24.769Z,1078.6528
2022-08-12T07:56:27.410Z,1093.66555
2022-08-12T08:01:28.987Z,1123.78235
2022-08-12T08:06:31.125Z,1158.06735
2022-08-12T08:11:32.664Z,1191.74385
2022-08-12T08:16:34.095Z,1220.27475
2022-08-12T08:21:35.556Z,1248.142
2022-08-12T08:26:37.242Z,1261.32925
2022-08-12T08:31:39.832Z,1284.86285
2022-08-12T08:36:43.836Z,1321.656
2022-08-12T08:42:14.275Z,1357.4166
2022-08-12T08:47:19.844Z,1389.69165
2022-08-12T08:52:45.626Z,1420.4911
2022-08-12T08:57:47.533Z,1469.4561
2022-08-12T09:02:58.892Z,1487.2166
2022-08-12T09:08:14.122Z,1504.9961
2022-08-12T09:13:23.291Z,1567.34995
2022-08-12T09:18:30.830Z,1598.7579
2022-08-12T09:23:57.004Z,1633.35665
2022-08-12T09:29:00.405Z,1662.3116
2022-08-12T09:34:27.766Z,1700.32175
2022-08-12T09:40:01.370Z,1738.8301
2022-08-12T09:45:19.192Z,1773.465
2022-08-12T09:50:25.204Z,1805.24185
2022-08-12T09:56:03.726Z,1847.95455
2022-08-12T10:02:43.109Z,1893.00995
2022-08-12T10:07:50.164Z,1946.5482
2022-08-12T10:13:07.166Z,1971.70385
2022-08-12T10:18:13.480Z,2013.384
2022-08-12T10:23:14.956Z,2059.45295
2022-08-12T10:28:24.837Z,2084.2397
2022-08-12T10:33:31.745Z,2126.76795
2022-08-12T10:38:41.414Z,2146.44525
2022-08-12T10:43:55.898Z,2213.9257
2022-08-12T10:49:06.287Z,2270.74605
2022-08-12T10:55:04.768Z,2305.6567
2022-08-12T11:00:34.255Z,2338.59355
2022-08-12T11:07:06.727Z,2425.2911
2022-08-12T11:13:45.827Z,2442.46025
2022-08-12T11:18:55.424Z,2466.43505
2022-08-12T11:23:57.741Z,2465.67825
2022-08-12T11:29:05.893Z,2505.55005
2022-08-12T11:34:52.520Z,2512.74175
2022-08-12T11:45:10.334Z,2506.7652
2022-08-12T11:50:19.613Z,2504.23805
2022-08-12T11:55:23.160Z,2501.37815
2022-08-12T12:06:00.607Z,2556.1867
2022-08-12T12:11:02.449Z,2548.6984
2022-08-12T12:16:11.023Z,2527.56265
2022-08-12T12:21:12.714Z,2553.5284
2022-08-12T12:26:34.866Z,2545.9108
2022-08-12T12:32:11.360Z,2518.228
2022-08-12T12:37:16.249Z,2478.87155
2022-08-12T12:42:43.643Z,2479.59035
2022-08-12T12:47:55.018Z,2437.5603
2022-08-12T12:52:57.099Z,2379.74355
2022-08-12T12:58:00.699Z,2388.7246
2022-08-12T13:03:02.701Z,2358.2579
2022-08-12T13:08:04.460Z,2329.0082
2022-08-12T13:14:10.559Z,2298.5415
2022-08-12T13:19:15.278Z,2232.4625
2022-08-12T13:24:16.953Z,2171.10505
2022-08-12T13:29:20.778Z,2133.79655
2022-08-12T13:34:33.479Z,2049.01765
2022-08-12T13:39:37.604Z,1973.9576
2022-08-12T13:44:39.128Z,1931.9827
2022-08-12T13:49:54.595Z,1860.61165
2022-08-12T13:54:57.369Z,1773.74865
2022-08-12T14:00:00.873Z,1726.27825
2022-08-12T14:05:03.434Z,1667.68755
2022-08-12T14:10:33.159Z,1595.4494
2022-08-12T14:15:37.244Z,1516.2953
2022-08-12T14:20:39.471Z,1429.61675
2022-08-12T14:25:41.487Z,1348.0838
2022-08-12T14:30:43.085Z,1248.7542
2022-08-12T14:36:01.402Z,1133.58275
2022-08-12T14:41:05.110Z,1018.6509
2022-08-12T14:46:09.153Z,850.0705
2022-08-12T14:52:44.146Z,706.4423
2022-08-12T14:58:31.978Z,513.07515
2022-08-12T15:03:52.724Z,393.7165
2022-08-12T15:08:59.554Z,289.14815
2022-08-12T15:14:06.019Z,216.66855
2022-08-12T15:20:11.929Z,160.08595
2022-08-12T15:25:40.027Z,112.99975
2022-08-12T15:30:49.873Z,90.16595
2022-08-12T15:35:53.877Z,78.01125
2022-08-12T15:40:55.668Z,50.6612
2022-08-12T15:46:00.785Z,26.74155
2022-08-12T15:51:02.967Z,10.5308
2022-08-12T15:56:04.893Z,4.2665
2022-08-12T16:01:07.190Z,2.13325
2022-08-12T16:06:11.458Z,0.47405
2022-08-12T16:11:15.448Z,0
2022-08-12T16:16:23.667Z,0.88715
2022-08-12T16:21:52.456Z,0.88715
2022-08-12T16:26:59.584Z,0
2022-08-12T16:32:01.738Z,0
2022-08-12T16:37:03.318Z,0.88715
2022-08-12T16:42:04.910Z,0.88715
2022-08-12T16:47:07.203Z,0
2022-08-12T16:52:08.774Z,0.88715
2022-08-12T16:57:14.545Z,0.88715
2022-08-12T17:02:33.418Z,0
2022-08-12T17:07:36.567Z,0
2022-08-12T17:12:39.087Z,0.88715
2022-08-12T17:17:41.867Z,0
2022-08-12T17:22:43.583Z,0
2022-08-12T17:27:45.093Z,0
2022-08-12T17:32:53.159Z,0
2022-08-12T17:37:55.107Z,0
2022-08-12T17:42:56.698Z,0
2022-08-12T17:48:05.501Z,0
2022-08-12T17:53:07.894Z,0
2022-08-12T17:58:12.983Z,0.88715
2022-08-12T18:04:05.538Z,0
2022-08-12T18:09:24.371Z,0.88715
2022-08-12T18:14:28.122Z,0.88715
2022-08-12T18:20:04.049Z,0.88715
2022-08-12T18:25:18.643Z,0.88715
2022-08-12T18:31:17.670Z,0
2022-08-12T18:36:22.630Z,0.88715
2022-08-12T18:41:24.991Z,0
2022-08-12T18:46:29.941Z,0.88715
2022-08-12T18:51:34.110Z,0.88715
2022-08-12T18:56:47.470Z,0.88715
2022-08-12T19:02:21.700Z,0.88715
2022-08-12T19:07:24.753Z,0
2022-08-12T19:12:30.265Z,0
2022-08-12T19:17:56.908Z,0.88715
2022-08-12T19:23:08.082Z,0
2022-08-12T19:28:18.181Z,0.88715
2022-08-12T19:33:30.830Z,0
2022-08-12T19:38:35.221Z,0
2022-08-12T19:43:59.240Z,0.88715
2022-08-12T19:49:17.952Z,0
2022-08-12T19:54:27.145Z,0.88715
2022-08-12T19:59:43.420Z,0.88715
2022-08-12T20:06:04.470Z,0
2022-08-12T20:12:14.442Z,0.88715
2022-08-12T20:17:23.465Z,0
2022-08-12T20:22:31.567Z,0.88715
2022-08-12T20:28:04.885Z,0.88715
2022-08-12T20:33:07.943Z,0
2022-08-12T20:38:26.725Z,0
2022-08-12T20:43:32.004Z,0
2022-08-12T20:48:33.807Z,0
2022-08-12T20:53:53.967Z,0
2022-08-12T20:59:00.551Z,0.88715
2022-08-12T21:04:02.446Z,0.88715
2022-08-12T21:09:05.068Z,0.88715
2022-08-12T21:14:10.522Z,0
2022-08-12T21:19:22.268Z,0.88715
2022-08-12T21:24:32.482Z,0.88715
2022-08-12T21:29:40.128Z,0
2022-08-12T21:34:56.480Z,0
2022-08-12T21:39:58.926Z,0
2022-08-12T21:45:47.989Z,0.88715
2022-08-12T21:51:02.363Z,0
2022-08-12T21:56:03.853Z,0
2022-08-12T22:01:10.349Z,0
2022-08-12T22:06:31.351Z,0.88715
2022-08-12T22:11:56.915Z,0.88715
2022-08-12T22:17:01.554Z,0.88715
2022-08-12T22:22:06.740Z,0
2022-08-12T22:27:31.861Z,0.88715
2022-08-12T22:32:34.782Z,0
2022-08-12T22:37:39.018Z,0
2022-08-12T22:42:40.591Z,0
2022-08-12T22:47:54.040Z,0.88715
2022-08-12T22:52:57.721Z,0
2022-08-12T22:58:01.724Z,0.88715
2022-08-12T23:03:03.797Z,0.88715
2022-08-12T23:08:05.631Z,0
2022-08-12T23:13:07.181Z,0.88715
2022-08-12T23:18:09.893Z,0.88715
2022-08-12T23:23:12.309Z,0.88715
2022-08-12T23:28:29.482Z,0.88715
2022-08-12T23:34:01.431Z,0.88715
2022-08-12T23:39:04.473Z,0
2022-08-12T23:44:07.206Z,0
2022-08-12T23:49:26.803Z,0
2022-08-12T23:55:04.734Z,0
